Airfield :
LOGIN :

Register | Disclaimer

   EN    FR    IT 

 










Legend :    VFR   Marginal VFR   IFR   Intensive IFR   Very Intensive IFR
Visi :
Ceiling :
>= 8 km
>= 3000ft
5 to 8 km
1000 to 3000 ft
1500m to 5 km
500 to 1000 ft
800 to 1500m
200 to 500 ft
< 800m
< 200 ft
Symbols :   Thunderstorms  Fog  Heavy snow  Heavy precipitations  Wind > 20 kt
SIGMETs :     Misc.  Thunderstorms  Icing  Turbulence  Mountain Waves  Volcanic Ashes






- Airport Elevation : 144 ft
- IATA code : PGF


LFMP - Perpignan

CURRENT METAR :
  • 031800Z AUTO 31022G32KT 280V340 9999 FEW064 24/09 Q1019 BECMG 30012KT

EXPIRED METARs :
  • 031730Z AUTO 31018KT 280V350 CAVOK 24/09 Q1019 TEMPO 30015G25KT
  • 031700Z AUTO 31020G30KT 9999 FEW014 25/09 Q1019 NOSIG
  • 031630Z AUTO 31019KT 280V340 9999 FEW066 25/09 Q1018 BECMG 30015G25KT
  • 031600Z AUTO 30022G35KT 280V340 9999 FEW064 25/09 Q1018 BECMG 30015G25KT
  • 031530Z AUTO 31015KT 280V350 9999 SCT064 25/09 Q1018 BECMG 30015G25KT

TAF TAF LFMP
Valid from the 03 at 15:00 until the 04 at 15:00 UTC


031400Z 0315/0415 30020G35KT CAVOK
BECMG 0317/0319 30015G25KT
BECMG 0319/0321 30012KT
BECMG 0413/0415 32015G25KT
ATIS : +33 4 68 63 75 12



MET'MAP, your aeronautical weather chart ! - Copyright ORBIFLY December 2007 - Disclaimer

ORBIFLY MET'MAP TEAM :

Programming & Development : Alexandra Zaïnal
Concept & original design : Baudouin d'Aumeries
Assistance for programming : Marc-Olivier Méhu
Technical & hardware support : Manuel Goepfert

Contact : metmap@orbifly.com




SOURCES & CREDITS :

   NOAA